createdAt,value
2023-05-14T00:01:25.054Z,100877.38
2023-05-14T00:04:27.600Z,100875.72
2023-05-14T00:07:31.011Z,100864.22
2023-05-14T00:10:33.793Z,100859.09
2023-05-14T00:13:36.462Z,100862.38
2023-05-14T00:16:38.959Z,100864.03
2023-05-14T00:19:42.152Z,100858.13
2023-05-14T00:22:44.722Z,100856.28
2023-05-14T00:25:47.209Z,100863.38
2023-05-14T00:28:49.695Z,100845.88
2023-05-14T00:31:52.766Z,100854.63
2023-05-14T00:34:55.726Z,100855.53
2023-05-14T00:37:58.479Z,100848.38
2023-05-14T00:41:01.212Z,100847.66
2023-05-14T00:44:03.838Z,100844.13
2023-05-14T00:47:06.918Z,100832.59
2023-05-14T00:50:09.869Z,100836.09
2023-05-14T00:53:12.589Z,100844.81
2023-05-14T00:56:15.676Z,100837.78
2023-05-14T00:59:18.671Z,100821.16
2023-05-14T01:02:21.304Z,100822.09
2023-05-14T01:05:23.955Z,100815.28
2023-05-14T01:08:44.464Z,100817.75
2023-05-14T01:12:17.228Z,100803.59
2023-05-14T01:15:28.690Z,100806.78
2023-05-14T01:18:31.339Z,100797.09
2023-05-14T01:21:36.553Z,100804.19
2023-05-14T01:24:39.142Z,100811.19
2023-05-14T01:28:01.259Z,100803.78
2023-05-14T01:31:17.525Z,100793.22
2023-05-14T01:34:21.433Z,100792.00
2023-05-14T01:37:24.098Z,100796.41
2023-05-14T01:40:26.700Z,100789.25
2023-05-14T01:43:29.522Z,100784.53
2023-05-14T01:46:35.818Z,100773.13
2023-05-14T01:49:38.372Z,100774.22
2023-05-14T01:52:40.934Z,100765.41
2023-05-14T01:55:43.457Z,100767.28
2023-05-14T01:58:45.900Z,100769.81
2023-05-14T02:01:48.444Z,100754.09
2023-05-14T02:04:51.289Z,100747.28
2023-05-14T02:07:53.646Z,100753.44
2023-05-14T02:10:56.138Z,100748.13
2023-05-14T02:14:00.775Z,100746.34
2023-05-14T02:17:03.622Z,100748.03
2023-05-14T02:20:07.135Z,100750.63
2023-05-14T02:23:09.759Z,100751.63
2023-05-14T02:26:12.761Z,100741.00
2023-05-14T02:29:15.501Z,100750.75
2023-05-14T02:32:18.259Z,100749.19
2023-05-14T02:35:21.030Z,100756.88
2023-05-14T02:38:23.855Z,100755.09
2023-05-14T02:41:26.388Z,100750.81
2023-05-14T02:44:29.181Z,100742.22
2023-05-14T02:47:31.707Z,100741.44
2023-05-14T02:50:34.285Z,100745.84
2023-05-14T02:53:37.069Z,100741.66
2023-05-14T02:56:39.396Z,100740.72
2023-05-14T02:59:41.721Z,100738.81
2023-05-14T03:02:44.820Z,100740.38
2023-05-14T03:05:47.934Z,100737.81
2023-05-14T03:08:50.679Z,100736.06
2023-05-14T03:11:53.314Z,100739.75
2023-05-14T03:14:55.983Z,100743.00
2023-05-14T03:17:58.832Z,100734.28
2023-05-14T03:21:01.455Z,100735.25
2023-05-14T03:24:03.984Z,100728.28
2023-05-14T03:27:06.597Z,100736.88
2023-05-14T03:30:09.735Z,100728.22
2023-05-14T03:33:12.566Z,100733.34
2023-05-14T03:36:14.933Z,100733.56
2023-05-14T03:39:20.303Z,100733.78
2023-05-14T03:42:22.730Z,100738.94
2023-05-14T03:45:25.189Z,100736.91
2023-05-14T03:48:27.811Z,100722.25
2023-05-14T03:51:31.865Z,100721.44
2023-05-14T03:54:34.423Z,100712.41
2023-05-14T03:57:37.046Z,100709.09
2023-05-14T04:00:41.313Z,100705.63
2023-05-14T04:03:44.160Z,100717.13
2023-05-14T04:06:46.722Z,100720.56
2023-05-14T04:09:49.312Z,100723.38
2023-05-14T04:12:51.913Z,100714.72
2023-05-14T04:15:54.482Z,100728.53
2023-05-14T04:18:58.117Z,100726.09
2023-05-14T04:22:00.738Z,100714.75
2023-05-14T04:25:03.337Z,100720.06
2023-05-14T04:28:06.302Z,100719.31
2023-05-14T04:31:08.711Z,100723.47
2023-05-14T04:34:11.173Z,100712.81
2023-05-14T04:37:14.105Z,100712.72
2023-05-14T04:40:21.946Z,100705.81
2023-05-14T04:43:25.648Z,100710.09
2023-05-14T04:46:28.877Z,100715.34
2023-05-14T04:49:32.029Z,100708.31
2023-05-14T04:52:34.560Z,100702.19
2023-05-14T04:55:37.064Z,100703.03
2023-05-14T04:58:39.567Z,100711.84
2023-05-14T05:01:42.007Z,100701.50
2023-05-14T05:04:44.658Z,100696.25
2023-05-14T05:07:47.096Z,100693.69
2023-05-14T05:10:49.551Z,100692.81
2023-05-14T05:13:51.963Z,100694.63
2023-05-14T05:16:54.848Z,100692.97
2023-05-14T05:19:57.393Z,100696.72
2023-05-14T05:22:59.949Z,100690.69
2023-05-14T05:26:02.608Z,100683.53
2023-05-14T05:29:05.587Z,100687.78
2023-05-14T05:32:08.269Z,100693.16
2023-05-14T05:35:10.769Z,100688.16
2023-05-14T05:38:15.103Z,100688.97
2023-05-14T05:41:17.617Z,100699.34
2023-05-14T05:44:21.374Z,100695.72
2023-05-14T05:47:24.043Z,100688.84
2023-05-14T05:50:26.566Z,100684.56
2023-05-14T05:53:29.097Z,100682.78
2023-05-14T05:56:31.920Z,100695.16
2023-05-14T05:59:34.433Z,100682.84
2023-05-14T06:02:36.902Z,100688.91
2023-05-14T06:05:39.761Z,100699.53
2023-05-14T06:08:42.318Z,100701.31
2023-05-14T06:11:44.851Z,100696.22
2023-05-14T06:14:47.320Z,100705.97
2023-05-14T06:17:49.816Z,100700.75
2023-05-14T06:20:52.240Z,100697.06
2023-05-14T06:23:54.706Z,100698.97
2023-05-14T06:26:59.169Z,100701.78
2023-05-14T06:30:01.612Z,100694.81
2023-05-14T06:33:04.225Z,100705.47
2023-05-14T06:36:07.881Z,100701.00
2023-05-14T06:39:10.386Z,100697.63
2023-05-14T06:42:13.062Z,100695.88
2023-05-14T06:45:16.371Z,100698.66
2023-05-14T06:48:19.360Z,100692.59
2023-05-14T06:51:22.189Z,100690.97
2023-05-14T06:54:24.850Z,100694.63
2023-05-14T06:57:27.492Z,100685.34
2023-05-14T07:00:30.679Z,100679.41
2023-05-14T07:03:33.177Z,100675.16
2023-05-14T07:06:35.758Z,100672.81
2023-05-14T07:09:38.467Z,100677.50
2023-05-14T07:12:40.942Z,100663.53
2023-05-14T07:15:43.932Z,100663.63
2023-05-14T07:18:46.574Z,100653.31
2023-05-14T07:21:51.730Z,100658.84
2023-05-14T07:24:54.251Z,100655.34
2023-05-14T07:27:56.725Z,100657.31
2023-05-14T07:30:59.427Z,100646.84
2023-05-14T07:34:01.904Z,100644.50
2023-05-14T07:37:04.538Z,100644.59
2023-05-14T07:40:07.613Z,100635.13
2023-05-14T07:43:10.680Z,100643.34
2023-05-14T07:46:12.862Z,100649.09
2023-05-14T07:49:15.836Z,100633.38
2023-05-14T07:52:18.249Z,100635.16
2023-05-14T07:55:21.034Z,100626.34
2023-05-14T07:58:23.729Z,100634.38
2023-05-14T08:01:26.482Z,100630.91
2023-05-14T08:04:29.091Z,100631.84
2023-05-14T08:07:34.497Z,100632.78
2023-05-14T08:10:37.004Z,100620.41
2023-05-14T08:13:39.765Z,100612.47
2023-05-14T08:16:42.308Z,100607.28
2023-05-14T08:19:44.880Z,100604.59
2023-05-14T08:22:47.377Z,100600.34
2023-05-14T08:25:49.807Z,100603.81
2023-05-14T08:28:56.200Z,100596.91
2023-05-14T08:32:00.311Z,100594.38
2023-05-14T08:35:06.906Z,100585.63
2023-05-14T08:38:09.402Z,100581.38
2023-05-14T08:41:12.117Z,100587.47
2023-05-14T08:44:36.718Z,100578.53
2023-05-14T08:47:39.391Z,100563.69
2023-05-14T08:50:41.811Z,100562.72
2023-05-14T08:53:44.722Z,100568.91
2023-05-14T08:56:47.069Z,100581.19
2023-05-14T08:59:49.398Z,100579.44
2023-05-14T09:02:51.911Z,100571.38
2023-05-14T09:05:54.381Z,100565.16
2023-05-14T09:08:57.147Z,100567.00
2023-05-14T09:11:59.627Z,100573.94
2023-05-14T09:15:02.216Z,100568.59
2023-05-14T09:18:05.960Z,100564.97
2023-05-14T09:21:08.475Z,100559.59
2023-05-14T09:24:13.722Z,100571.72
2023-05-14T09:27:20.041Z,100555.06
2023-05-14T09:30:22.785Z,100562.81
2023-05-14T09:33:28.791Z,100556.66
2023-05-14T09:36:31.886Z,100545.19
2023-05-14T09:39:36.242Z,100543.44
2023-05-14T09:42:38.829Z,100542.53
2023-05-14T09:45:43.760Z,100542.44
2023-05-14T09:48:46.362Z,100530.25
2023-05-14T09:51:49.188Z,100538.25
2023-05-14T09:54:52.493Z,100524.22
2023-05-14T09:57:54.965Z,100528.53
2023-05-14T10:00:58.058Z,100526.88
2023-05-14T10:04:01.465Z,100519.13
2023-05-14T10:07:04.136Z,100520.22
2023-05-14T10:10:07.814Z,100494.72
2023-05-14T10:13:14.854Z,100477.31
2023-05-14T10:16:20.787Z,100444.09
2023-05-14T10:19:24.379Z,100438.16
2023-05-14T10:22:31.052Z,100432.09
2023-05-14T10:25:34.973Z,100422.44
2023-05-14T10:28:37.561Z,100412.72
2023-05-14T10:31:58.124Z,100414.53
2023-05-14T10:35:01.769Z,100441.59
2023-05-14T10:38:08.628Z,100452.09
2023-05-14T10:41:18.156Z,100445.88
2023-05-14T10:44:20.624Z,100451.97
2023-05-14T10:47:23.086Z,100457.31
2023-05-14T10:50:25.772Z,100449.25
2023-05-14T10:53:37.876Z,100431.88
2023-05-14T10:56:40.247Z,100430.06
2023-05-14T10:59:43.456Z,100431.81
2023-05-14T11:02:46.994Z,100429.13
2023-05-14T11:05:49.798Z,100431.72
2023-05-14T11:08:52.940Z,100431.69
2023-05-14T11:11:55.540Z,100431.75
2023-05-14T11:14:59.396Z,100422.75
2023-05-14T11:18:02.259Z,100417.38
2023-05-14T11:21:05.136Z,100420.81
2023-05-14T11:24:07.894Z,100417.22
2023-05-14T11:27:10.999Z,100423.38
2023-05-14T11:30:18.126Z,100415.44
2023-05-14T11:33:21.067Z,100422.63
2023-05-14T11:36:23.553Z,100412.00
2023-05-14T11:39:26.017Z,100416.38
2023-05-14T11:42:28.510Z,100412.78
2023-05-14T11:45:33.208Z,100412.78
2023-05-14T11:48:35.803Z,100414.44
2023-05-14T11:51:38.180Z,100412.66
2023-05-14T11:54:41.312Z,100405.63
2023-05-14T11:57:44.060Z,100396.03
2023-05-14T12:00:46.745Z,100396.97
2023-05-14T12:03:49.320Z,100381.06
2023-05-14T12:06:52.262Z,100375.94
2023-05-14T12:09:54.699Z,100379.41
2023-05-14T12:12:57.146Z,100377.63
2023-05-14T12:16:02.064Z,100362.81
2023-05-14T12:19:04.745Z,100355.78
2023-05-14T12:22:07.695Z,100365.13
2023-05-14T12:25:16.015Z,100342.38
2023-05-14T12:28:18.852Z,100347.66
2023-05-14T12:31:27.825Z,100356.38
2023-05-14T12:34:30.145Z,100350.03
2023-05-14T12:37:33.353Z,100351.78
2023-05-14T12:40:36.553Z,100347.44
2023-05-14T12:43:42.749Z,100349.09
2023-05-14T12:46:45.393Z,100345.59
2023-05-14T12:49:48.516Z,100353.50
2023-05-14T12:52:50.981Z,100347.53
2023-05-14T12:55:53.759Z,100330.94
2023-05-14T12:58:56.585Z,100325.53
2023-05-14T13:01:58.975Z,100321.13
2023-05-14T13:05:03.817Z,100310.50
2023-05-14T13:08:06.338Z,100300.06
2023-05-14T13:11:08.959Z,100290.44
2023-05-14T13:14:14.235Z,100297.41
2023-05-14T13:17:16.772Z,100301.00
2023-05-14T13:20:19.371Z,100301.72
2023-05-14T13:23:21.890Z,100277.88
2023-05-14T13:26:26.616Z,100288.53
2023-05-14T13:29:31.787Z,100276.31
2023-05-14T13:32:34.443Z,100272.78
2023-05-14T13:35:36.967Z,100257.84
2023-05-14T13:38:39.390Z,100261.34
2023-05-14T13:41:42.117Z,100263.88
2023-05-14T13:44:44.985Z,100249.91
2023-05-14T13:47:48.780Z,100239.34
2023-05-14T13:50:52.263Z,100251.63
2023-05-14T13:57:02.094Z,100245.34
2023-05-14T14:00:05.470Z,100236.59
2023-05-14T14:03:08.347Z,100228.63
2023-05-14T14:06:10.905Z,100244.34
2023-05-14T14:09:13.905Z,100234.63
2023-05-14T14:12:16.421Z,100228.56
2023-05-14T14:15:19.087Z,100231.19
2023-05-14T14:18:21.623Z,100232.09
2023-05-14T14:21:24.177Z,100214.50
2023-05-14T14:24:26.595Z,100231.22
2023-05-14T14:27:31.214Z,100224.06
2023-05-14T14:30:33.765Z,100225.91
2023-05-14T14:33:36.167Z,100221.44
2023-05-14T14:36:38.602Z,100230.25
2023-05-14T14:39:41.019Z,100226.66
2023-05-14T14:42:43.575Z,100220.53
2023-05-14T14:45:48.882Z,100216.16
2023-05-14T14:48:51.753Z,100210.75
2023-05-14T14:51:54.444Z,100208.09
2023-05-14T14:54:57.060Z,100194.84
2023-05-14T14:57:59.443Z,100189.50
2023-05-14T15:01:02.149Z,100183.47
2023-05-14T15:04:04.804Z,100180.56
2023-05-14T15:07:07.264Z,100180.59
2023-05-14T15:10:09.923Z,100174.41
2023-05-14T15:13:12.615Z,100170.00
2023-05-14T15:16:15.676Z,100177.09
2023-05-14T15:19:18.132Z,100172.69
2023-05-14T15:22:20.508Z,100164.81
2023-05-14T15:25:23.737Z,100160.44
2023-05-14T15:28:26.482Z,100160.34
2023-05-14T15:31:29.160Z,100155.84
2023-05-14T15:34:33.011Z,100160.19
2023-05-14T15:37:40.382Z,100149.63
2023-05-14T15:40:42.936Z,100151.41
2023-05-14T15:43:45.475Z,100159.16
2023-05-14T15:46:47.998Z,100155.69
2023-05-14T15:49:50.561Z,100152.28
2023-05-14T15:52:55.253Z,100147.00
2023-05-14T15:55:57.630Z,100131.13
2023-05-14T15:59:00.045Z,100124.09
2023-05-14T16:02:02.553Z,100110.97
2023-05-14T16:05:05.751Z,100094.44
2023-05-14T16:08:08.336Z,100092.75
2023-05-14T16:11:10.686Z,100069.00
2023-05-14T16:14:13.119Z,100099.63
2023-05-14T16:17:15.610Z,100107.41
2023-05-14T16:20:18.200Z,100108.47
2023-05-14T16:23:20.578Z,100115.44
2023-05-14T16:26:23.284Z,100103.16
2023-05-14T16:29:25.715Z,100094.47
2023-05-14T16:32:28.346Z,100115.47
2023-05-14T16:35:30.905Z,100105.72
2023-05-14T16:38:33.486Z,100092.72
2023-05-14T16:41:36.229Z,100095.25
2023-05-14T16:44:38.973Z,100089.19
2023-05-14T16:47:41.546Z,100066.50
2023-05-14T16:50:44.472Z,100059.50
2023-05-14T16:53:46.938Z,100052.47
2023-05-14T16:56:53.607Z,100055.16
2023-05-14T16:59:56.906Z,100044.66
2023-05-14T17:03:02.472Z,100055.09
2023-05-14T17:06:05.116Z,100048.97
2023-05-14T17:09:07.787Z,100048.03
2023-05-14T17:12:11.242Z,100048.03
2023-05-14T17:15:14.129Z,100041.91
2023-05-14T17:18:16.662Z,100037.56
2023-05-14T17:21:22.258Z,100022.66
2023-05-14T17:24:24.935Z,100027.06
2023-05-14T17:27:29.326Z,100014.75
2023-05-14T17:30:31.802Z,100005.88
2023-05-14T17:33:34.770Z,100008.59
2023-05-14T17:36:37.302Z,100006.88
2023-05-14T17:39:39.698Z,99996.38
2023-05-14T17:42:42.190Z,99999.88
2023-05-14T17:45:53.995Z,100004.22
2023-05-14T17:48:58.449Z,100010.28
2023-05-14T17:52:00.976Z,100001.66
2023-05-14T17:55:04.108Z,99992.00
2023-05-14T17:58:06.312Z,99999.09
2023-05-14T18:01:08.807Z,99983.28
2023-05-14T18:04:11.488Z,99980.72
2023-05-14T18:07:14.121Z,99981.59
2023-05-14T18:10:16.536Z,99981.63
2023-05-14T18:13:19.002Z,99969.28
2023-05-14T18:16:21.840Z,99972.84
2023-05-14T18:19:25.074Z,99966.66
2023-05-14T18:22:27.406Z,99975.50
2023-05-14T18:25:29.917Z,99971.91
2023-05-14T18:28:32.273Z,99980.56
2023-05-14T18:31:35.031Z,99988.53
2023-05-14T18:34:37.607Z,99981.56
2023-05-14T18:37:40.110Z,99977.19
2023-05-14T18:40:42.720Z,99983.38
2023-05-14T18:43:45.359Z,99984.22
2023-05-14T18:46:47.808Z,99981.59
2023-05-14T18:49:54.887Z,99985.94
2023-05-14T18:52:57.573Z,99986.84
2023-05-14T18:56:00.251Z,99987.66
2023-05-14T18:59:02.848Z,99985.03
2023-05-14T19:02:05.756Z,99986.00
2023-05-14T19:05:08.498Z,99990.44
2023-05-14T19:08:11.092Z,99993.03
2023-05-14T19:11:14.936Z,99982.59
2023-05-14T19:14:17.329Z,99979.91
2023-05-14T19:17:20.611Z,99966.81
2023-05-14T19:20:23.295Z,99959.03
2023-05-14T19:23:25.774Z,99961.69
2023-05-14T19:26:28.246Z,99973.06
2023-05-14T19:29:32.641Z,99963.41
2023-05-14T19:32:37.411Z,99951.16
2023-05-14T19:35:39.972Z,99939.81
2023-05-14T19:38:42.734Z,99948.56
2023-05-14T19:41:45.332Z,99949.44
2023-05-14T19:44:47.768Z,99953.81
2023-05-14T19:47:50.286Z,99946.81
2023-05-14T19:50:52.830Z,99952.13
2023-05-14T19:53:55.356Z,99945.06
2023-05-14T19:56:57.831Z,99948.59
2023-05-14T20:00:00.381Z,99949.53
2023-05-14T20:03:03.831Z,99945.06
2023-05-14T20:06:07.415Z,99950.31
2023-05-14T20:09:10.204Z,99950.44
2023-05-14T20:12:13.339Z,99945.16
2023-05-14T20:15:15.792Z,99946.00
2023-05-14T20:18:18.335Z,99939.03
2023-05-14T20:21:20.730Z,99935.50
2023-05-14T20:24:23.235Z,99932.94
2023-05-14T20:27:25.760Z,99931.16
2023-05-14T20:30:28.498Z,99936.47
2023-05-14T20:33:30.961Z,99935.53
2023-05-14T20:36:33.486Z,99936.44
2023-05-14T20:39:36.094Z,99925.97
2023-05-14T20:42:38.775Z,99935.69
2023-05-14T20:45:41.776Z,99927.78
2023-05-14T20:48:44.291Z,99906.78
2023-05-14T20:51:46.730Z,99900.63
2023-05-14T20:54:49.210Z,99897.09
2023-05-14T20:57:53.655Z,99898.00
2023-05-14T21:00:57.977Z,99896.25
2023-05-14T21:04:01.250Z,99886.56
2023-05-14T21:07:04.495Z,99888.38
2023-05-14T21:10:07.880Z,99889.25
2023-05-14T21:13:10.297Z,99884.00
2023-05-14T21:16:12.875Z,99878.69
2023-05-14T21:19:15.743Z,99876.94
2023-05-14T21:22:18.117Z,99877.81
2023-05-14T21:25:20.750Z,99868.22
2023-05-14T21:28:23.192Z,99857.69
2023-05-14T21:31:25.638Z,99857.69
2023-05-14T21:34:29.788Z,99860.34
2023-05-14T21:37:33.807Z,99843.72
2023-05-14T21:40:36.652Z,99839.41
2023-05-14T21:43:40.823Z,99831.50
2023-05-14T21:46:43.344Z,99814.88
2023-05-14T21:49:45.746Z,99808.75
2023-05-14T21:52:48.200Z,99805.28
2023-05-14T21:55:50.646Z,99806.19
2023-05-14T21:58:55.548Z,99803.56
2023-05-14T22:02:06.735Z,99799.97
2023-05-14T22:05:10.061Z,99817.53
2023-05-14T22:08:13.346Z,99818.38
2023-05-14T22:11:18.822Z,99818.34
2023-05-14T22:14:21.433Z,99815.72
2023-05-14T22:17:23.907Z,99821.84
2023-05-14T22:20:26.400Z,99824.53
2023-05-14T22:23:28.874Z,99815.78
2023-05-14T22:26:31.491Z,99821.91
2023-05-14T22:29:34.588Z,99812.28
2023-05-14T22:32:38.403Z,99814.91
2023-05-14T22:35:41.063Z,99815.78
2023-05-14T22:38:43.925Z,99821.91
2023-05-14T22:41:46.662Z,99814.06
2023-05-14T22:44:49.479Z,99812.31
2023-05-14T22:47:51.915Z,99811.47
2023-05-14T22:50:54.428Z,99811.47
2023-05-14T22:53:57.167Z,99816.72
2023-05-14T22:56:59.588Z,99817.63
2023-05-14T23:00:02.295Z,99828.97
2023-05-14T23:03:05.064Z,99803.63
2023-05-14T23:06:07.845Z,99810.63
2023-05-14T23:09:10.682Z,99813.25
2023-05-14T23:12:12.953Z,99812.28
2023-05-14T23:15:15.900Z,99807.88
2023-05-14T23:18:19.022Z,99803.59
2023-05-14T23:21:21.654Z,99787.94
2023-05-14T23:24:24.132Z,99768.66
2023-05-14T23:27:27.290Z,99770.44
2023-05-14T23:30:29.899Z,99770.44
2023-05-14T23:33:32.429Z,99764.38
2023-05-14T23:36:35.786Z,99766.09
2023-05-14T23:39:38.387Z,99752.13
2023-05-14T23:42:41.325Z,99755.63
2023-05-14T23:45:43.707Z,99752.06
2023-05-14T23:48:46.230Z,99750.38
2023-05-14T23:51:48.678Z,99749.53
2023-05-14T23:54:51.115Z,99734.63
2023-05-14T23:57:53.621Z,99740.69
